sensor_id;sensor_type;location;lat;lon;timestamp;P1;durP1;ratioP1;P2;durP2;ratioP2
43901;SDS011;29562;40.390;-3.706;2023-04-07T00:04:48;3.88;;;0.63;;
43901;SDS011;29562;40.390;-3.706;2023-04-07T00:14:50;2.15;;;0.75;;
43901;SDS011;29562;40.390;-3.706;2023-04-07T00:24:52;3.95;;;0.40;;
43901;SDS011;29562;40.390;-3.706;2023-04-07T00:34:54;2.00;;;0.60;;
43901;SDS011;29562;40.390;-3.706;2023-04-07T00:44:56;2.22;;;0.40;;
43901;SDS011;29562;40.390;-3.706;2023-04-07T00:54:58;1.25;;;0.45;;
43901;SDS011;29562;40.390;-3.706;2023-04-07T01:15:04;3.30;;;0.60;;
43901;SDS011;29562;40.390;-3.706;2023-04-07T01:25:21;2.47;;;0.70;;
43901;SDS011;29562;40.390;-3.706;2023-04-07T01:35:23;0.80;;;0.45;;
43901;SDS011;29562;40.390;-3.706;2023-04-07T01:45:26;0.85;;;0.57;;
43901;SDS011;29562;40.390;-3.706;2023-04-07T01:55:28;3.53;;;0.57;;
43901;SDS011;29562;40.390;-3.706;2023-04-07T02:05:30;2.63;;;0.40;;
43901;SDS011;29562;40.390;-3.706;2023-04-07T02:15:33;1.00;;;0.40;;
43901;SDS011;29562;40.390;-3.706;2023-04-07T02:25:35;1.27;;;0.55;;
43901;SDS011;29562;40.390;-3.706;2023-04-07T02:35:40;1.67;;;0.75;;
43901;SDS011;29562;40.390;-3.706;2023-04-07T02:45:41;1.63;;;0.80;;
43901;SDS011;29562;40.390;-3.706;2023-04-07T02:55:43;1.63;;;0.50;;
43901;SDS011;29562;40.390;-3.706;2023-04-07T03:05:45;2.10;;;0.60;;
43901;SDS011;29562;40.390;-3.706;2023-04-07T03:15:47;1.83;;;0.57;;
43901;SDS011;29562;40.390;-3.706;2023-04-07T03:25:48;1.30;;;0.50;;
43901;SDS011;29562;40.390;-3.706;2023-04-07T03:35:50;3.55;;;0.73;;
43901;SDS011;29562;40.390;-3.706;2023-04-07T03:45:52;2.95;;;0.52;;
43901;SDS011;29562;40.390;-3.706;2023-04-07T03:55:54;3.10;;;0.77;;
43901;SDS011;29562;40.390;-3.706;2023-04-07T04:05:56;2.85;;;0.50;;
43901;SDS011;29562;40.390;-3.706;2023-04-07T04:15:57;3.55;;;0.82;;
43901;SDS011;29562;40.390;-3.706;2023-04-07T04:25:59;3.15;;;1.33;;
43901;SDS011;29562;40.390;-3.706;2023-04-07T04:36:03;2.83;;;0.82;;
43901;SDS011;29562;40.390;-3.706;2023-04-07T04:46:05;3.95;;;0.73;;
43901;SDS011;29562;40.390;-3.706;2023-04-07T04:56:07;1.23;;;0.63;;
43901;SDS011;29562;40.390;-3.706;2023-04-07T05:06:08;1.58;;;0.77;;
43901;SDS011;29562;40.390;-3.706;2023-04-07T05:16:10;1.88;;;0.70;;
43901;SDS011;29562;40.390;-3.706;2023-04-07T05:26:12;2.25;;;0.95;;
43901;SDS011;29562;40.390;-3.706;2023-04-07T05:36:14;1.63;;;0.50;;
43901;SDS011;29562;40.390;-3.706;2023-04-07T05:46:16;2.38;;;0.80;;
43901;SDS011;29562;40.390;-3.706;2023-04-07T05:56:18;2.42;;;0.80;;
43901;SDS011;29562;40.390;-3.706;2023-04-07T06:06:19;2.05;;;0.60;;
43901;SDS011;29562;40.390;-3.706;2023-04-07T06:16:21;1.98;;;0.60;;
43901;SDS011;29562;40.390;-3.706;2023-04-07T06:26:23;1.73;;;0.65;;
43901;SDS011;29562;40.390;-3.706;2023-04-07T06:36:25;5.35;;;0.57;;
43901;SDS011;29562;40.390;-3.706;2023-04-07T06:46:27;5.88;;;1.40;;
43901;SDS011;29562;40.390;-3.706;2023-04-07T06:56:29;1.17;;;0.70;;
43901;SDS011;29562;40.390;-3.706;2023-04-07T07:06:30;2.00;;;0.60;;
43901;SDS011;29562;40.390;-3.706;2023-04-07T07:16:32;4.97;;;0.73;;
43901;SDS011;29562;40.390;-3.706;2023-04-07T07:26:34;3.30;;;0.98;;
43901;SDS011;29562;40.390;-3.706;2023-04-07T07:36:36;3.58;;;0.73;;
43901;SDS011;29562;40.390;-3.706;2023-04-07T07:46:38;2.38;;;0.85;;
43901;SDS011;29562;40.390;-3.706;2023-04-07T07:56:39;2.35;;;0.90;;
43901;SDS011;29562;40.390;-3.706;2023-04-07T08:06:41;3.20;;;1.00;;
43901;SDS011;29562;40.390;-3.706;2023-04-07T08:16:43;5.28;;;0.90;;
43901;SDS011;29562;40.390;-3.706;2023-04-07T08:26:45;2.17;;;0.95;;
43901;SDS011;29562;40.390;-3.706;2023-04-07T08:36:46;6.53;;;0.90;;
43901;SDS011;29562;40.390;-3.706;2023-04-07T08:46:48;7.68;;;1.20;;
43901;SDS011;29562;40.390;-3.706;2023-04-07T08:56:51;3.83;;;1.65;;
43901;SDS011;29562;40.390;-3.706;2023-04-07T09:06:53;2.03;;;0.70;;
43901;SDS011;29562;40.390;-3.706;2023-04-07T09:16:55;3.03;;;0.63;;
43901;SDS011;29562;40.390;-3.706;2023-04-07T09:37:20;4.20;;;0.80;;
43901;SDS011;29562;40.390;-3.706;2023-04-07T09:47:28;1.90;;;0.68;;
43901;SDS011;29562;40.390;-3.706;2023-04-07T09:57:31;3.85;;;0.90;;
43901;SDS011;29562;40.390;-3.706;2023-04-07T10:07:33;1.85;;;0.95;;
43901;SDS011;29562;40.390;-3.706;2023-04-07T10:17:35;3.53;;;0.75;;
43901;SDS011;29562;40.390;-3.706;2023-04-07T10:27:54;1.08;;;0.47;;
43901;SDS011;29562;40.390;-3.706;2023-04-07T10:38:12;1.75;;;0.77;;
43901;SDS011;29562;40.390;-3.706;2023-04-07T10:48:15;3.58;;;0.52;;
43901;SDS011;29562;40.390;-3.706;2023-04-07T10:58:26;4.00;;;0.70;;
43901;SDS011;29562;40.390;-3.706;2023-04-07T11:08:32;1.15;;;0.60;;
43901;SDS011;29562;40.390;-3.706;2023-04-07T11:18:34;4.20;;;0.70;;
43901;SDS011;29562;40.390;-3.706;2023-04-07T11:28:46;3.88;;;0.40;;
43901;SDS011;29562;40.390;-3.706;2023-04-07T11:38:48;1.40;;;0.50;;
43901;SDS011;29562;40.390;-3.706;2023-04-07T11:48:50;1.73;;;1.05;;
43901;SDS011;29562;40.390;-3.706;2023-04-07T11:58:53;3.47;;;0.95;;
43901;SDS011;29562;40.390;-3.706;2023-04-07T12:08:55;4.40;;;0.70;;
43901;SDS011;29562;40.390;-3.706;2023-04-07T12:18:57;3.65;;;1.13;;
43901;SDS011;29562;40.390;-3.706;2023-04-07T12:28:58;2.50;;;0.63;;
43901;SDS011;29562;40.390;-3.706;2023-04-07T12:39:04;1.73;;;0.60;;
43901;SDS011;29562;40.390;-3.706;2023-04-07T12:49:06;2.75;;;0.68;;
43901;SDS011;29562;40.390;-3.706;2023-04-07T12:59:07;3.85;;;0.63;;
43901;SDS011;29562;40.390;-3.706;2023-04-07T13:09:09;1.77;;;0.57;;
43901;SDS011;29562;40.390;-3.706;2023-04-07T13:19:11;2.38;;;0.73;;
43901;SDS011;29562;40.390;-3.706;2023-04-07T13:29:13;2.28;;;0.60;;
43901;SDS011;29562;40.390;-3.706;2023-04-07T13:39:14;2.85;;;0.60;;
43901;SDS011;29562;40.390;-3.706;2023-04-07T13:49:16;1.75;;;0.60;;
43901;SDS011;29562;40.390;-3.706;2023-04-07T13:59:17;5.85;;;1.35;;
43901;SDS011;29562;40.390;-3.706;2023-04-07T14:09:19;2.05;;;0.70;;
43901;SDS011;29562;40.390;-3.706;2023-04-07T14:19:21;2.97;;;0.85;;
43901;SDS011;29562;40.390;-3.706;2023-04-07T14:29:23;2.28;;;0.40;;
43901;SDS011;29562;40.390;-3.706;2023-04-07T14:39:26;4.68;;;0.93;;
43901;SDS011;29562;40.390;-3.706;2023-04-07T14:49:28;2.08;;;0.60;;
43901;SDS011;29562;40.390;-3.706;2023-04-07T14:59:30;1.08;;;0.32;;
43901;SDS011;29562;40.390;-3.706;2023-04-07T15:09:31;1.80;;;0.73;;
43901;SDS011;29562;40.390;-3.706;2023-04-07T15:19:33;0.85;;;0.40;;
43901;SDS011;29562;40.390;-3.706;2023-04-07T15:29:35;1.90;;;0.60;;
43901;SDS011;29562;40.390;-3.706;2023-04-07T15:39:38;2.53;;;0.80;;
43901;SDS011;29562;40.390;-3.706;2023-04-07T15:49:40;3.33;;;0.63;;
43901;SDS011;29562;40.390;-3.706;2023-04-07T15:59:41;3.75;;;0.68;;
43901;SDS011;29562;40.390;-3.706;2023-04-07T16:09:43;3.58;;;0.65;;
43901;SDS011;29562;40.390;-3.706;2023-04-07T16:19:45;1.38;;;0.55;;
43901;SDS011;29562;40.390;-3.706;2023-04-07T16:29:46;2.90;;;0.52;;
43901;SDS011;29562;40.390;-3.706;2023-04-07T16:39:48;1.98;;;0.40;;
43901;SDS011;29562;40.390;-3.706;2023-04-07T16:49:49;1.52;;;0.75;;
43901;SDS011;29562;40.390;-3.706;2023-04-07T16:59:51;4.00;;;0.60;;
43901;SDS011;29562;40.390;-3.706;2023-04-07T17:09:52;3.00;;;0.30;;
43901;SDS011;29562;40.390;-3.706;2023-04-07T17:19:54;1.45;;;0.60;;
43901;SDS011;29562;40.390;-3.706;2023-04-07T17:29:57;3.90;;;0.77;;
43901;SDS011;29562;40.390;-3.706;2023-04-07T17:39:58;2.30;;;0.57;;
43901;SDS011;29562;40.390;-3.706;2023-04-07T17:50:02;4.28;;;0.60;;
43901;SDS011;29562;40.390;-3.706;2023-04-07T18:00:04;1.23;;;0.60;;
43901;SDS011;29562;40.390;-3.706;2023-04-07T18:10:06;2.33;;;0.80;;
43901;SDS011;29562;40.390;-3.706;2023-04-07T18:20:08;2.22;;;0.60;;
43901;SDS011;29562;40.390;-3.706;2023-04-07T18:30:11;2.40;;;0.85;;
43901;SDS011;29562;40.390;-3.706;2023-04-07T18:40:12;4.60;;;0.80;;
43901;SDS011;29562;40.390;-3.706;2023-04-07T18:50:14;3.00;;;1.00;;
43901;SDS011;29562;40.390;-3.706;2023-04-07T19:00:15;2.20;;;1.38;;
43901;SDS011;29562;40.390;-3.706;2023-04-07T19:10:17;6.80;;;1.83;;
43901;SDS011;29562;40.390;-3.706;2023-04-07T19:20:19;4.70;;;1.80;;
43901;SDS011;29562;40.390;-3.706;2023-04-07T19:30:20;5.45;;;2.13;;
43901;SDS011;29562;40.390;-3.706;2023-04-07T19:40:22;4.43;;;1.65;;
43901;SDS011;29562;40.390;-3.706;2023-04-07T19:50:24;4.78;;;2.03;;
43901;SDS011;29562;40.390;-3.706;2023-04-07T20:00:27;3.88;;;1.80;;
43901;SDS011;29562;40.390;-3.706;2023-04-07T20:10:29;7.45;;;3.67;;
43901;SDS011;29562;40.390;-3.706;2023-04-07T20:20:31;3.58;;;2.00;;
43901;SDS011;29562;40.390;-3.706;2023-04-07T20:30:32;5.28;;;2.38;;
43901;SDS011;29562;40.390;-3.706;2023-04-07T20:40:34;7.10;;;2.03;;
43901;SDS011;29562;40.390;-3.706;2023-04-07T20:50:36;8.88;;;3.35;;
43901;SDS011;29562;40.390;-3.706;2023-04-07T21:00:38;7.72;;;3.70;;
43901;SDS011;29562;40.390;-3.706;2023-04-07T21:10:40;6.10;;;2.78;;
43901;SDS011;29562;40.390;-3.706;2023-04-07T21:20:41;7.50;;;2.75;;
43901;SDS011;29562;40.390;-3.706;2023-04-07T21:30:43;4.78;;;1.45;;
43901;SDS011;29562;40.390;-3.706;2023-04-07T21:40:45;4.05;;;1.55;;
43901;SDS011;29562;40.390;-3.706;2023-04-07T21:50:46;9.40;;;2.95;;
43901;SDS011;29562;40.390;-3.706;2023-04-07T22:00:48;6.75;;;2.67;;
43901;SDS011;29562;40.390;-3.706;2023-04-07T22:10:50;9.57;;;2.25;;
43901;SDS011;29562;40.390;-3.706;2023-04-07T22:20:52;8.27;;;2.35;;
43901;SDS011;29562;40.390;-3.706;2023-04-07T22:30:53;7.10;;;2.13;;
43901;SDS011;29562;40.390;-3.706;2023-04-07T22:40:55;6.95;;;2.00;;
43901;SDS011;29562;40.390;-3.706;2023-04-07T22:50:56;7.75;;;1.85;;
43901;SDS011;29562;40.390;-3.706;2023-04-07T23:00:58;3.88;;;1.50;;
43901;SDS011;29562;40.390;-3.706;2023-04-07T23:11:00;8.00;;;1.48;;
43901;SDS011;29562;40.390;-3.706;2023-04-07T23:21:01;5.72;;;1.42;;
43901;SDS011;29562;40.390;-3.706;2023-04-07T23:31:03;5.40;;;2.15;;
43901;SDS011;29562;40.390;-3.706;2023-04-07T23:41:06;3.75;;;1.48;;
43901;SDS011;29562;40.390;-3.706;2023-04-07T23:51:08;4.70;;;1.80;;
